createdAt,value
2017-08-31T00:00:11.480Z,20.1
2017-08-31T00:01:13.873Z,20
2017-08-31T00:02:16.266Z,20
2017-08-31T00:03:18.655Z,20
2017-08-31T00:04:21.045Z,20
2017-08-31T00:05:23.436Z,20
2017-08-31T00:06:25.828Z,20
2017-08-31T00:07:28.219Z,20
2017-08-31T00:08:30.609Z,20
2017-08-31T00:09:33.346Z,20
2017-08-31T00:10:36.075Z,20
2017-08-31T00:11:38.467Z,20
2017-08-31T00:12:40.861Z,20
2017-08-31T00:13:43.255Z,20
2017-08-31T00:14:45.652Z,19.9
2017-08-31T00:15:48.036Z,19.9
2017-08-31T00:16:50.432Z,19.9
2017-08-31T00:17:53.162Z,19.9
2017-08-31T00:18:55.553Z,19.9
2017-08-31T00:19:57.946Z,19.9
2017-08-31T00:21:00.339Z,19.8
2017-08-31T00:22:02.730Z,19.8
2017-08-31T00:23:05.130Z,19.8
2017-08-31T00:24:07.547Z,19.8
2017-08-31T00:25:09.959Z,19.8
2017-08-31T00:26:12.371Z,19.8
2017-08-31T00:27:14.789Z,19.8
2017-08-31T00:28:17.190Z,19.7
2017-08-31T00:29:19.602Z,19.7
2017-08-31T00:30:22.014Z,19.7
2017-08-31T00:31:24.431Z,19.6
2017-08-31T00:32:26.840Z,19.7
2017-08-31T00:33:29.251Z,19.7
2017-08-31T00:34:31.663Z,19.7
2017-08-31T00:35:34.082Z,19.6
2017-08-31T00:36:36.496Z,19.6
2017-08-31T00:37:38.902Z,19.6
2017-08-31T00:38:41.324Z,19.6
2017-08-31T00:39:43.733Z,19.6
2017-08-31T00:40:46.142Z,19.6
2017-08-31T00:41:48.552Z,19.6
2017-08-31T00:42:50.964Z,19.6
2017-08-31T00:43:53.382Z,19.6
2017-08-31T00:44:55.795Z,19.6
2017-08-31T00:45:58.206Z,19.6
2017-08-31T00:47:00.621Z,19.6
2017-08-31T00:48:03.043Z,19.6
2017-08-31T00:49:05.456Z,19.6
2017-08-31T00:50:07.868Z,19.6
2017-08-31T00:51:10.285Z,19.6
2017-08-31T00:52:12.704Z,19.6
2017-08-31T00:53:15.447Z,19.6
2017-08-31T00:54:17.856Z,19.6
2017-08-31T00:55:20.272Z,19.6
2017-08-31T00:56:22.680Z,19.6
2017-08-31T00:57:25.090Z,19.6
2017-08-31T00:58:27.506Z,19.6
2017-08-31T00:59:29.914Z,19.6
2017-08-31T01:00:32.335Z,19.6
2017-08-31T01:01:34.744Z,19.6
2017-08-31T01:02:37.143Z,19.5
2017-08-31T01:03:39.554Z,19.5
2017-08-31T01:04:41.962Z,19.5
2017-08-31T01:05:44.373Z,19.6
2017-08-31T01:06:46.788Z,19.6
2017-08-31T01:07:49.203Z,19.6
2017-08-31T01:08:51.613Z,19.6
2017-08-31T01:09:54.021Z,19.6
2017-08-31T01:10:56.433Z,19.6
2017-08-31T01:11:58.845Z,19.6
2017-08-31T01:13:01.265Z,19.6
2017-08-31T01:14:03.673Z,19.6
2017-08-31T01:15:06.084Z,19.7
2017-08-31T01:16:08.510Z,19.7
2017-08-31T01:17:11.251Z,19.7
2017-08-31T01:18:13.657Z,19.6
2017-08-31T01:19:16.066Z,19.7
2017-08-31T01:20:18.481Z,19.7
2017-08-31T01:21:20.889Z,19.6
2017-08-31T01:22:23.296Z,19.6
2017-08-31T01:23:25.710Z,19.6
2017-08-31T01:24:28.120Z,19.6
2017-08-31T01:25:30.523Z,19.7
2017-08-31T01:26:32.936Z,19.6
2017-08-31T01:27:35.340Z,19.7
2017-08-31T01:28:37.759Z,19.7
2017-08-31T01:29:40.172Z,19.7
2017-08-31T01:30:42.581Z,19.7
2017-08-31T01:31:44.991Z,19.6
2017-08-31T01:32:47.408Z,19.7
2017-08-31T01:33:49.816Z,19.7
2017-08-31T01:34:52.238Z,19.7
2017-08-31T01:35:54.643Z,19.6
2017-08-31T01:36:57.056Z,19.6
2017-08-31T01:37:59.818Z,19.7
2017-08-31T01:39:02.225Z,19.7
2017-08-31T01:40:04.634Z,19.7
2017-08-31T01:41:07.379Z,19.7
2017-08-31T01:42:09.793Z,19.7
2017-08-31T01:43:12.209Z,19.8
2017-08-31T01:44:14.623Z,19.8
2017-08-31T01:45:17.030Z,19.7
2017-08-31T01:46:19.441Z,19.7
2017-08-31T01:47:21.854Z,19.7
2017-08-31T01:48:24.267Z,19.7
2017-08-31T01:49:26.684Z,19.7
2017-08-31T01:50:29.095Z,19.7
2017-08-31T01:51:31.505Z,19.8
2017-08-31T01:52:33.933Z,19.8
2017-08-31T01:53:36.338Z,19.8
2017-08-31T01:54:38.751Z,19.8
2017-08-31T01:55:41.521Z,19.9
2017-08-31T01:56:43.938Z,19.9
2017-08-31T01:57:46.352Z,19.9
2017-08-31T01:58:48.774Z,19.9
2017-08-31T01:59:51.179Z,19.9
2017-08-31T02:00:53.594Z,19.8
2017-08-31T02:01:56.003Z,19.8
2017-08-31T02:02:58.412Z,19.8
2017-08-31T02:04:00.817Z,19.7
2017-08-31T02:05:03.228Z,19.8
2017-08-31T02:06:05.636Z,19.9
2017-08-31T02:07:08.050Z,19.9
2017-08-31T02:08:10.456Z,19.9
2017-08-31T02:09:12.869Z,19.9
2017-08-31T02:10:15.287Z,20
2017-08-31T02:11:17.708Z,20
2017-08-31T02:12:20.114Z,20
2017-08-31T02:13:22.533Z,20
2017-08-31T02:14:25.310Z,20
2017-08-31T02:15:27.725Z,20
2017-08-31T02:16:30.137Z,20
2017-08-31T02:17:32.552Z,20
2017-08-31T02:18:35.289Z,20
2017-08-31T02:19:37.710Z,20
2017-08-31T02:20:40.126Z,20
2017-08-31T02:21:42.536Z,20.1
2017-08-31T02:22:44.944Z,20.1
2017-08-31T02:23:47.364Z,20
2017-08-31T02:24:49.776Z,20
2017-08-31T02:25:52.176Z,20.1
2017-08-31T02:26:54.595Z,20.1
2017-08-31T02:27:56.997Z,20.1
2017-08-31T02:28:59.408Z,20.1
2017-08-31T02:30:01.823Z,20
2017-08-31T02:31:04.230Z,20.1
2017-08-31T02:32:06.638Z,20.1
2017-08-31T02:33:09.059Z,20.1
2017-08-31T02:34:11.803Z,20.1
2017-08-31T02:35:14.217Z,20.1
2017-08-31T02:36:16.628Z,20.1
2017-08-31T02:37:19.382Z,20.1
2017-08-31T02:38:21.796Z,20.1
2017-08-31T02:39:24.208Z,20.1
2017-08-31T02:40:26.623Z,20.1
2017-08-31T02:41:29.039Z,20.1
2017-08-31T02:42:31.786Z,20.1
2017-08-31T02:43:34.209Z,20.1
2017-08-31T02:44:36.611Z,20.1
2017-08-31T02:45:39.023Z,20.1
2017-08-31T02:46:41.432Z,20.1
2017-08-31T02:47:43.834Z,20.1
2017-08-31T02:48:46.256Z,20.1
2017-08-31T02:49:48.656Z,20.1
2017-08-31T02:50:51.074Z,20.1
2017-08-31T02:51:53.494Z,20.2
2017-08-31T02:52:55.907Z,20.2
2017-08-31T02:53:58.315Z,20.1
2017-08-31T02:55:00.728Z,20.2
2017-08-31T02:56:03.139Z,20.2
2017-08-31T02:57:05.554Z,20.2
2017-08-31T02:58:07.960Z,20.2
2017-08-31T02:59:10.363Z,20.1
2017-08-31T03:00:12.778Z,20.1
2017-08-31T03:01:15.197Z,20.1
2017-08-31T03:02:17.617Z,20.1
2017-08-31T03:03:20.027Z,20.1
2017-08-31T03:04:22.442Z,20
2017-08-31T03:05:24.854Z,20
2017-08-31T03:06:27.272Z,20.1
2017-08-31T03:07:29.685Z,20.1
2017-08-31T03:08:32.436Z,20.1
2017-08-31T03:09:34.839Z,20.2
2017-08-31T03:10:37.257Z,20.2
2017-08-31T03:11:39.666Z,20.2
2017-08-31T03:12:42.078Z,20.2
2017-08-31T03:13:44.495Z,20.2
2017-08-31T03:14:47.248Z,20.2
2017-08-31T03:15:49.656Z,20.2
2017-08-31T03:16:52.073Z,20.2
2017-08-31T03:17:54.477Z,20.2
2017-08-31T03:18:56.889Z,20.2
2017-08-31T03:19:59.303Z,20.3
2017-08-31T03:21:01.715Z,20.3
2017-08-31T03:22:04.133Z,20.3
2017-08-31T03:23:06.898Z,20.2
2017-08-31T03:24:09.302Z,20.2
2017-08-31T03:25:11.713Z,20.2
2017-08-31T03:26:14.119Z,20.2
2017-08-31T03:27:16.529Z,20.2
2017-08-31T03:28:18.940Z,20.2
2017-08-31T03:29:21.349Z,20.2
2017-08-31T03:30:23.756Z,20.2
2017-08-31T03:31:26.183Z,20.2
2017-08-31T03:32:28.585Z,20.2
2017-08-31T03:33:30.995Z,20.3
2017-08-31T03:34:33.415Z,20.3
2017-08-31T03:35:35.826Z,20.2
2017-08-31T03:36:38.240Z,20.2
2017-08-31T03:37:40.651Z,20.2
2017-08-31T03:38:43.063Z,20.2
2017-08-31T03:39:45.472Z,20.2
2017-08-31T03:40:47.885Z,20.3
2017-08-31T03:41:50.287Z,20.2
2017-08-31T03:42:52.705Z,20.2
2017-08-31T03:43:55.120Z,20.2
2017-08-31T03:44:57.529Z,20.2
2017-08-31T03:45:59.938Z,20.3
2017-08-31T03:47:02.345Z,20.2
2017-08-31T03:48:04.757Z,20.2
2017-08-31T03:49:07.168Z,20.2
2017-08-31T03:50:09.578Z,20.2
2017-08-31T03:51:11.992Z,20.2
2017-08-31T03:52:14.407Z,20.2
2017-08-31T03:53:16.816Z,20.3
2017-08-31T03:54:19.230Z,20.3
2017-08-31T03:55:21.640Z,20.3
2017-08-31T03:56:24.055Z,20.3
2017-08-31T03:57:26.471Z,20.3
2017-08-31T03:58:28.879Z,20.4
2017-08-31T03:59:31.286Z,20.4
2017-08-31T04:00:33.698Z,20.4
2017-08-31T04:01:36.113Z,20.3
2017-08-31T04:02:38.527Z,20.4
2017-08-31T04:03:41.275Z,20.4
2017-08-31T04:04:43.681Z,20.4
2017-08-31T04:05:46.100Z,20.4
2017-08-31T04:06:48.511Z,20.4
2017-08-31T04:07:50.907Z,20.4
2017-08-31T04:08:53.323Z,20.4
2017-08-31T04:09:55.738Z,20.4
2017-08-31T04:10:58.148Z,20.3
2017-08-31T04:12:00.571Z,20.3
2017-08-31T04:13:02.966Z,20.3
2017-08-31T04:14:05.368Z,20.3
2017-08-31T04:15:07.787Z,20.3
2017-08-31T04:16:10.201Z,20.3
2017-08-31T04:17:12.607Z,20.3
2017-08-31T04:18:15.021Z,20.3
2017-08-31T04:19:17.768Z,20.3
2017-08-31T04:20:20.182Z,20.3
2017-08-31T04:21:22.594Z,20.3
2017-08-31T04:22:25.012Z,20.3
2017-08-31T04:23:27.424Z,20.3
2017-08-31T04:24:29.828Z,20.3
2017-08-31T04:25:32.240Z,20.3
2017-08-31T04:26:34.662Z,20.2
2017-08-31T04:27:37.074Z,20.3
2017-08-31T04:28:39.485Z,20.2
2017-08-31T04:29:41.884Z,20.2
2017-08-31T04:30:44.300Z,20.2
2017-08-31T04:31:46.722Z,20.2
2017-08-31T04:32:49.128Z,20.2
2017-08-31T04:33:51.541Z,20.2
2017-08-31T04:34:53.953Z,20.2
2017-08-31T04:35:56.367Z,20.2
2017-08-31T04:36:58.780Z,20.2
2017-08-31T04:38:01.197Z,20.2
2017-08-31T04:39:03.599Z,20.2
2017-08-31T04:40:06.018Z,20.2
2017-08-31T04:41:08.428Z,20.2
2017-08-31T04:42:10.846Z,20.2
2017-08-31T04:43:13.253Z,20.2
2017-08-31T04:44:15.667Z,20.2
2017-08-31T04:45:18.085Z,20.1
2017-08-31T04:46:20.837Z,20.1
2017-08-31T04:47:23.256Z,20.1
2017-08-31T04:48:25.662Z,20.1
2017-08-31T04:49:28.076Z,20.2
2017-08-31T04:50:30.494Z,20.2
2017-08-31T04:51:32.906Z,20.2
2017-08-31T04:52:35.322Z,20.1
2017-08-31T04:53:37.738Z,20.1
2017-08-31T04:54:40.142Z,20.1
2017-08-31T04:55:42.905Z,20.2
2017-08-31T04:56:45.312Z,20.2
2017-08-31T04:57:47.723Z,20.1
2017-08-31T04:58:50.132Z,20.1
2017-08-31T04:59:52.614Z,20.1
2017-08-31T05:00:55.043Z,20.1
2017-08-31T05:01:57.462Z,20.1
2017-08-31T05:02:59.872Z,20.1
2017-08-31T05:04:02.284Z,20.2
2017-08-31T05:05:04.738Z,20.2
2017-08-31T05:06:07.489Z,20.2
2017-08-31T05:07:10.246Z,20.2
2017-08-31T05:08:12.663Z,20.2
2017-08-31T05:09:15.073Z,20.2
2017-08-31T05:10:17.486Z,20.2
2017-08-31T05:11:19.901Z,20.2
2017-08-31T05:12:22.308Z,20.2
2017-08-31T05:13:24.732Z,20.2
2017-08-31T05:14:27.144Z,20.2
2017-08-31T05:15:29.560Z,20.2
2017-08-31T05:16:31.975Z,20.2
2017-08-31T05:17:34.390Z,20.2
2017-08-31T05:18:36.808Z,20.2
2017-08-31T05:19:39.211Z,20.2
2017-08-31T05:20:41.927Z,20.2
2017-08-31T05:21:44.350Z,20.2
2017-08-31T05:22:46.756Z,20.2
2017-08-31T05:23:49.172Z,20.2
2017-08-31T05:24:51.928Z,20.2
2017-08-31T05:25:54.337Z,20.2
2017-08-31T05:26:56.765Z,20.2
2017-08-31T05:27:59.531Z,20.2
2017-08-31T05:29:01.945Z,20.2
2017-08-31T05:30:04.368Z,20.2
2017-08-31T05:31:06.778Z,20.2
2017-08-31T05:32:09.188Z,20.2
2017-08-31T05:33:11.603Z,20.2
2017-08-31T05:34:14.022Z,20.2
2017-08-31T05:35:16.430Z,20.2
2017-08-31T05:36:18.840Z,20.2
2017-08-31T05:37:21.252Z,20.2
2017-08-31T05:38:23.662Z,20.2
2017-08-31T05:39:26.082Z,20.1
2017-08-31T05:40:28.486Z,20.2
2017-08-31T05:41:30.905Z,20.2
2017-08-31T05:42:33.320Z,20.2
2017-08-31T05:43:35.737Z,20.2
2017-08-31T05:44:38.834Z,20.2
2017-08-31T05:45:41.246Z,20.2
2017-08-31T05:46:43.652Z,20.2
2017-08-31T05:47:46.398Z,20.2
2017-08-31T05:48:48.856Z,20.2
2017-08-31T05:49:51.275Z,20.3
2017-08-31T05:50:53.687Z,20.3
2017-08-31T05:51:56.098Z,20.3
2017-08-31T05:52:58.495Z,20.3
2017-08-31T05:54:00.920Z,20.3
2017-08-31T05:55:03.688Z,20.3
2017-08-31T05:56:06.165Z,20.3
2017-08-31T05:57:08.586Z,20.3
2017-08-31T05:58:10.996Z,20.3
2017-08-31T05:59:13.409Z,20.3
2017-08-31T06:00:16.070Z,20.3
2017-08-31T06:01:18.506Z,20.4
2017-08-31T06:02:20.926Z,20.4
2017-08-31T06:03:23.334Z,20.4
2017-08-31T06:04:25.747Z,20.4
2017-08-31T06:05:28.158Z,20.4
2017-08-31T06:06:30.572Z,20.4
2017-08-31T06:07:32.987Z,20.4
2017-08-31T06:08:35.399Z,20.4
2017-08-31T06:09:37.815Z,20.4
2017-08-31T06:10:40.228Z,20.5
2017-08-31T06:11:42.641Z,20.5
2017-08-31T06:12:45.054Z,20.5
2017-08-31T06:13:47.462Z,20.4
2017-08-31T06:14:49.873Z,20.4
2017-08-31T06:15:52.293Z,20.5
2017-08-31T06:16:54.701Z,20.4
2017-08-31T06:17:57.110Z,20.5
2017-08-31T06:18:59.877Z,20.5
2017-08-31T06:20:02.285Z,20.5
2017-08-31T06:21:04.698Z,20.6
2017-08-31T06:22:07.112Z,20.6
2017-08-31T06:23:09.525Z,20.6
2017-08-31T06:24:11.936Z,20.6
2017-08-31T06:25:14.354Z,20.6
2017-08-31T06:26:16.759Z,20.6
2017-08-31T06:27:19.174Z,20.6
2017-08-31T06:28:21.588Z,20.6
2017-08-31T06:29:23.997Z,20.6
2017-08-31T06:30:26.406Z,20.7
2017-08-31T06:31:28.817Z,20.6
2017-08-31T06:32:31.223Z,20.6
2017-08-31T06:33:33.644Z,20.6
2017-08-31T06:34:36.058Z,20.6
2017-08-31T06:35:38.465Z,20.7
2017-08-31T06:36:40.884Z,20.7
2017-08-31T06:37:43.307Z,20.7
2017-08-31T06:38:46.054Z,20.7
2017-08-31T06:39:48.470Z,20.7
2017-08-31T06:40:50.883Z,20.7
2017-08-31T06:41:53.293Z,20.7
2017-08-31T06:42:55.710Z,20.7
2017-08-31T06:43:58.121Z,20.6
2017-08-31T06:45:00.524Z,20.5
2017-08-31T06:46:02.944Z,20.5
2017-08-31T06:47:05.359Z,20.5
2017-08-31T06:48:07.774Z,20.5
2017-08-31T06:49:10.182Z,20.5
2017-08-31T06:50:12.595Z,20.6
2017-08-31T06:51:15.005Z,20.5
2017-08-31T06:52:17.419Z,20.5
2017-08-31T06:53:19.832Z,20.5
2017-08-31T06:54:22.245Z,20.5
2017-08-31T06:55:24.652Z,20.5
2017-08-31T06:56:27.070Z,20.5
2017-08-31T06:57:29.825Z,20.5
2017-08-31T06:58:32.232Z,20.5
2017-08-31T06:59:34.640Z,20.5
2017-08-31T07:00:37.393Z,20.4
2017-08-31T07:01:39.815Z,20.5
2017-08-31T07:02:42.224Z,20.4
2017-08-31T07:03:44.629Z,20.4
2017-08-31T07:04:47.044Z,20.4
2017-08-31T07:05:49.460Z,20.4
2017-08-31T07:06:51.868Z,20.4
2017-08-31T07:07:54.283Z,20.4
2017-08-31T07:08:56.691Z,20.4
2017-08-31T07:09:59.109Z,20.4
2017-08-31T07:11:01.527Z,20.4
2017-08-31T07:12:03.938Z,20.4
2017-08-31T07:13:06.349Z,20.3
2017-08-31T07:14:08.761Z,20.3
2017-08-31T07:15:11.178Z,20.3
2017-08-31T07:16:13.580Z,20.4
2017-08-31T07:17:15.995Z,20.4
2017-08-31T07:18:18.419Z,20.4
2017-08-31T07:19:20.828Z,20.4
2017-08-31T07:20:23.578Z,20.4
2017-08-31T07:21:25.988Z,20.4
2017-08-31T07:22:28.397Z,20.4
2017-08-31T07:23:30.814Z,20.4
2017-08-31T07:24:33.226Z,20.4
2017-08-31T07:25:35.632Z,20.4
2017-08-31T07:26:38.043Z,20.4
2017-08-31T07:27:40.459Z,20.4
2017-08-31T07:28:42.878Z,20.4
2017-08-31T07:29:45.628Z,20.5
2017-08-31T07:30:48.041Z,20.5
2017-08-31T07:31:50.459Z,20.5
2017-08-31T07:32:52.873Z,20.6
2017-08-31T07:33:55.622Z,20.6
2017-08-31T07:34:58.033Z,20.6
2017-08-31T07:36:00.441Z,20.6
2017-08-31T07:37:02.862Z,20.6
2017-08-31T07:38:05.276Z,20.7
2017-08-31T07:39:07.691Z,20.8
2017-08-31T07:40:10.109Z,20.8
2017-08-31T07:41:12.888Z,20.8
2017-08-31T07:42:15.302Z,20.7
2017-08-31T07:43:17.721Z,20.7
2017-08-31T07:44:20.119Z,20.7
2017-08-31T07:45:22.872Z,20.7
2017-08-31T07:46:25.288Z,20.7
2017-08-31T07:47:27.704Z,20.8
2017-08-31T07:48:30.113Z,20.8
2017-08-31T07:49:32.866Z,20.8
2017-08-31T07:50:35.278Z,20.8
2017-08-31T07:51:37.690Z,20.7
2017-08-31T07:52:40.110Z,20.6
2017-08-31T07:53:42.513Z,20.6
2017-08-31T07:54:44.933Z,20.7
2017-08-31T07:55:47.349Z,20.7
2017-08-31T07:56:49.763Z,20.7
2017-08-31T07:57:52.172Z,20.7
2017-08-31T07:58:54.583Z,20.7
2017-08-31T07:59:56.991Z,20.7
2017-08-31T08:00:59.407Z,20.6
2017-08-31T08:02:01.825Z,20.6
2017-08-31T08:03:04.232Z,20.6
2017-08-31T08:04:06.660Z,20.5
2017-08-31T08:05:09.111Z,20.5
2017-08-31T08:06:11.529Z,20.5
2017-08-31T08:07:13.946Z,20.5
2017-08-31T08:08:16.352Z,20.4
2017-08-31T08:09:18.765Z,20.4
2017-08-31T08:10:21.177Z,20.4
2017-08-31T08:11:23.588Z,20.5
2017-08-31T08:12:26.337Z,20.5
2017-08-31T08:13:28.753Z,20.5
2017-08-31T08:14:31.164Z,20.6
2017-08-31T08:15:33.570Z,20.6
2017-08-31T08:16:36.326Z,20.6
2017-08-31T08:17:38.745Z,20.6
2017-08-31T08:18:41.156Z,20.6
2017-08-31T08:19:43.562Z,20.7
2017-08-31T08:20:45.966Z,20.7
2017-08-31T08:21:48.382Z,20.7
2017-08-31T08:22:50.798Z,20.7
2017-08-31T08:24:38.107Z,20.7
2017-08-31T08:25:40.572Z,20.7
2017-08-31T08:26:43.048Z,20.7
2017-08-31T08:27:45.521Z,20.7
2017-08-31T08:28:47.991Z,20.7
2017-08-31T08:29:50.804Z,20.6
2017-08-31T08:30:53.281Z,20.6
2017-08-31T08:31:55.750Z,20.7
2017-08-31T08:32:58.228Z,20.7
2017-08-31T08:34:00.698Z,20.8
2017-08-31T08:35:03.182Z,20.8
2017-08-31T08:36:05.642Z,20.8
2017-08-31T08:37:08.120Z,20.8
2017-08-31T08:38:10.591Z,20.8
2017-08-31T08:39:13.062Z,20.8
2017-08-31T08:40:15.529Z,20.7
2017-08-31T08:41:17.998Z,20.8
2017-08-31T08:42:20.473Z,20.8
2017-08-31T08:43:22.939Z,20.8
2017-08-31T08:44:25.416Z,20.9
2017-08-31T08:45:27.883Z,20.9
2017-08-31T08:46:30.353Z,20.9
2017-08-31T08:47:32.817Z,20.9
2017-08-31T08:48:35.295Z,20.9
2017-08-31T08:49:37.777Z,20.9
2017-08-31T08:50:40.249Z,20.9
2017-08-31T08:51:43.056Z,21
2017-08-31T08:52:45.532Z,21.1
2017-08-31T08:53:48.011Z,21.1
2017-08-31T08:54:50.492Z,21.1
2017-08-31T08:55:52.964Z,21.1
2017-08-31T08:56:55.425Z,21.1
2017-08-31T08:57:57.901Z,21.1
2017-08-31T08:59:00.727Z,21.1
2017-08-31T09:00:03.230Z,21.2
2017-08-31T09:01:06.039Z,21.2
2017-08-31T09:02:08.507Z,21.2
2017-08-31T09:03:11.327Z,21.3
2017-08-31T09:04:13.790Z,21.2
2017-08-31T09:05:16.265Z,21.2
2017-08-31T09:06:18.732Z,21.3
2017-08-31T09:07:21.207Z,21.2
2017-08-31T09:08:23.683Z,21.2
2017-08-31T09:09:26.154Z,21.1
2017-08-31T09:10:28.628Z,21.1
2017-08-31T09:11:31.099Z,21.2
2017-08-31T09:12:33.574Z,21.1
2017-08-31T09:13:36.051Z,21.1
2017-08-31T09:14:38.532Z,21.1
2017-08-31T09:15:41.351Z,21.1
2017-08-31T09:16:43.832Z,21.1
2017-08-31T09:17:46.303Z,21.1
2017-08-31T09:18:48.777Z,21.1
2017-08-31T09:19:51.248Z,21.1
2017-08-31T09:20:54.073Z,21.2
2017-08-31T09:21:56.535Z,21.2
2017-08-31T09:22:59.024Z,21.1
2017-08-31T09:24:01.488Z,21.1
2017-08-31T09:25:03.980Z,21
2017-08-31T09:26:06.438Z,21
2017-08-31T09:27:08.908Z,21
2017-08-31T09:28:11.381Z,20.9
2017-08-31T09:29:13.860Z,20.9
2017-08-31T09:30:16.337Z,20.8
2017-08-31T09:31:18.816Z,20.8
2017-08-31T09:32:21.282Z,20.8
2017-08-31T09:33:23.754Z,20.8
2017-08-31T09:34:26.563Z,20.8
2017-08-31T09:35:29.036Z,20.7
2017-08-31T09:36:31.511Z,20.7
2017-08-31T09:37:33.979Z,20.6
2017-08-31T09:38:36.447Z,20.6
2017-08-31T09:39:38.919Z,20.5
2017-08-31T09:40:41.390Z,20.5
2017-08-31T09:41:43.869Z,20.5
2017-08-31T09:42:46.685Z,20.5
2017-08-31T09:43:49.157Z,20.5
2017-08-31T09:44:51.631Z,20.5
2017-08-31T09:45:54.104Z,20.4
2017-08-31T09:46:56.586Z,20.3
2017-08-31T09:47:59.053Z,20.3
2017-08-31T09:49:01.881Z,20.3
2017-08-31T09:50:04.355Z,20.2
2017-08-31T09:51:06.826Z,20.2
2017-08-31T09:52:09.307Z,20.2
2017-08-31T09:53:11.776Z,20.3
2017-08-31T09:54:14.243Z,20.2
2017-08-31T09:55:16.720Z,20.2
2017-08-31T09:56:19.194Z,20.2
2017-08-31T09:57:21.669Z,20.3
2017-08-31T09:58:24.140Z,20.4
2017-08-31T09:59:26.616Z,20.4
2017-08-31T10:00:29.091Z,20.3
2017-08-31T10:01:31.566Z,20.4
2017-08-31T10:02:34.038Z,20.4
2017-08-31T10:03:36.852Z,20.3
2017-08-31T10:04:39.324Z,20.4
2017-08-31T10:05:41.799Z,20.5
2017-08-31T10:06:44.274Z,20.5
2017-08-31T10:07:46.750Z,20.5
2017-08-31T10:08:49.224Z,20.5
2017-08-31T10:09:51.698Z,20.4
2017-08-31T10:10:54.170Z,20.4
2017-08-31T10:11:56.641Z,20.3
2017-08-31T10:12:59.116Z,20.3
2017-08-31T10:14:01.584Z,20.3
2017-08-31T10:15:04.056Z,20.2
2017-08-31T10:16:06.527Z,20.1
2017-08-31T10:17:09.001Z,20.2
2017-08-31T10:18:11.475Z,20.1
2017-08-31T10:19:13.941Z,20.1
2017-08-31T10:20:16.398Z,20
2017-08-31T10:21:18.880Z,20.1
2017-08-31T10:22:21.350Z,20.1
2017-08-31T10:23:23.825Z,20.1
2017-08-31T10:24:26.304Z,20
2017-08-31T10:25:28.776Z,20
2017-08-31T10:26:31.601Z,20.1
2017-08-31T10:27:34.080Z,20.1
2017-08-31T10:28:36.540Z,20.2
2017-08-31T10:29:39.015Z,20.3
2017-08-31T10:30:41.481Z,20.3
2017-08-31T10:31:43.944Z,20.5
2017-08-31T10:32:46.761Z,20.6
2017-08-31T10:33:49.229Z,20.7
2017-08-31T10:34:51.694Z,20.7
2017-08-31T10:35:54.167Z,20.7
2017-08-31T10:36:56.641Z,20.7
2017-08-31T10:37:59.113Z,20.7
2017-08-31T10:39:01.600Z,20.7
2017-08-31T10:40:04.070Z,20.8
2017-08-31T10:41:06.908Z,20.8
2017-08-31T10:42:09.381Z,20.7
2017-08-31T10:43:11.860Z,20.7
2017-08-31T10:44:14.340Z,20.5
2017-08-31T10:45:16.816Z,20.5
2017-08-31T10:46:19.289Z,20.5
2017-08-31T10:47:22.111Z,20.5
2017-08-31T10:48:24.584Z,20.4
2017-08-31T10:49:27.056Z,20.4
2017-08-31T10:50:29.530Z,20.3
2017-08-31T10:51:32.005Z,20.3
2017-08-31T10:52:34.480Z,20.2
2017-08-31T10:53:36.955Z,20.3
2017-08-31T10:54:39.420Z,20.3
2017-08-31T10:55:41.893Z,20.4
2017-08-31T10:56:44.355Z,20.4
2017-08-31T10:57:46.828Z,20.5
2017-08-31T10:58:49.296Z,20.5
2017-08-31T10:59:51.768Z,20.5
2017-08-31T11:00:54.247Z,20.5
2017-08-31T11:01:56.717Z,20.5
2017-08-31T11:02:59.534Z,20.4
2017-08-31T11:04:02.009Z,20.4
2017-08-31T11:05:04.488Z,20.4
2017-08-31T11:06:06.962Z,20.4
2017-08-31T11:07:09.436Z,20.4
2017-08-31T11:08:11.915Z,20.5
2017-08-31T11:09:14.376Z,20.5
2017-08-31T11:10:16.850Z,20.4
2017-08-31T11:11:19.321Z,20.4
2017-08-31T11:12:21.781Z,20.4
2017-08-31T11:13:24.262Z,20.4
2017-08-31T11:14:26.732Z,20.4
2017-08-31T11:15:29.207Z,20.4
2017-08-31T11:16:31.669Z,20.3
2017-08-31T11:17:34.149Z,20.3
2017-08-31T11:18:36.963Z,20.3
2017-08-31T11:19:39.423Z,20.2
2017-08-31T11:20:41.905Z,20.2
2017-08-31T11:21:44.372Z,20.2
2017-08-31T11:22:46.838Z,20.2
2017-08-31T11:23:49.313Z,20.2
2017-08-31T11:24:51.785Z,20.1
2017-08-31T11:25:54.255Z,20.1
2017-08-31T11:26:56.736Z,20.4
2017-08-31T11:27:59.336Z,20.5
2017-08-31T11:29:01.869Z,20.5
2017-08-31T11:30:04.990Z,20.5
2017-08-31T11:31:07.930Z,20.5
2017-08-31T11:32:11.339Z,20.5
2017-08-31T11:33:13.881Z,20.4
2017-08-31T11:34:16.351Z,20.3
2017-08-31T11:35:18.830Z,20.3
2017-08-31T11:36:21.261Z,20.2
2017-08-31T11:37:23.685Z,20.2
2017-08-31T11:38:26.154Z,20
2017-08-31T11:39:28.628Z,20
2017-08-31T11:40:31.094Z,20
2017-08-31T11:41:33.557Z,20
2017-08-31T11:42:36.036Z,19.9
2017-08-31T11:43:38.513Z,19.8
2017-08-31T11:44:41.331Z,19.8
2017-08-31T11:45:43.794Z,19.8
2017-08-31T11:46:46.607Z,19.7
2017-08-31T11:47:49.084Z,19.7
2017-08-31T11:48:51.549Z,19.7
2017-08-31T11:49:54.014Z,19.6
2017-08-31T11:50:56.511Z,19.6
2017-08-31T11:51:58.963Z,19.5
2017-08-31T11:53:01.446Z,19.6
2017-08-31T11:54:04.264Z,19.5
2017-08-31T11:55:06.729Z,19.6
2017-08-31T11:56:09.204Z,19.6
2017-08-31T11:57:11.676Z,19.7
2017-08-31T11:58:14.147Z,19.7
2017-08-31T11:59:16.963Z,19.7
2017-08-31T12:00:19.421Z,19.6
2017-08-31T12:01:21.893Z,19.5
2017-08-31T12:02:24.372Z,19.5
2017-08-31T12:03:26.843Z,19.5
2017-08-31T12:04:29.325Z,19.5
2017-08-31T12:05:31.795Z,19.5
2017-08-31T12:06:34.273Z,19.5
2017-08-31T12:07:36.747Z,19.5
2017-08-31T12:08:39.227Z,19.5
2017-08-31T12:09:41.695Z,19.4
2017-08-31T12:10:44.261Z,19.4
2017-08-31T12:11:46.739Z,19.4
2017-08-31T12:12:49.212Z,19.3
2017-08-31T12:13:51.683Z,19.2
2017-08-31T12:14:54.150Z,19.1
2017-08-31T12:15:56.619Z,19.2
2017-08-31T12:16:59.092Z,19.2
2017-08-31T12:18:01.558Z,19.1
2017-08-31T12:19:04.386Z,19
2017-08-31T12:20:06.853Z,19
2017-08-31T12:21:09.330Z,18.9
2017-08-31T12:22:11.802Z,18.9
2017-08-31T12:23:14.271Z,18.9
2017-08-31T12:24:16.741Z,18.9
2017-08-31T12:25:19.218Z,18.9
2017-08-31T12:26:21.677Z,18.8
2017-08-31T12:27:24.154Z,18.7
2017-08-31T12:28:26.624Z,18.7
2017-08-31T12:29:29.459Z,18.6
2017-08-31T12:30:31.927Z,18.7
2017-08-31T12:31:34.403Z,18.6
2017-08-31T12:32:36.867Z,18.6
2017-08-31T12:33:39.347Z,18.7
2017-08-31T12:34:41.814Z,18.8
2017-08-31T12:35:44.629Z,18.8
2017-08-31T12:36:47.093Z,18.7
2017-08-31T12:37:49.558Z,18.8
2017-08-31T12:38:52.025Z,18.7
2017-08-31T12:39:54.493Z,18.6
2017-08-31T12:40:56.957Z,18.7
2017-08-31T12:41:59.425Z,18.7
2017-08-31T12:43:01.897Z,18.7
2017-08-31T12:44:04.714Z,18.7
2017-08-31T12:45:07.191Z,18.6
2017-08-31T12:46:10.447Z,18.5
2017-08-31T12:47:12.945Z,18.5
2017-08-31T12:48:15.432Z,18.4
2017-08-31T12:49:17.885Z,18.5
2017-08-31T12:50:20.364Z,18.5
2017-08-31T12:51:22.829Z,18.5
2017-08-31T12:52:25.297Z,18.5
2017-08-31T12:53:27.763Z,18.5
2017-08-31T12:54:30.226Z,18.4
2017-08-31T12:55:33.043Z,18.4
2017-08-31T12:56:35.513Z,18.4
2017-08-31T12:57:38.339Z,18.4
2017-08-31T12:58:40.800Z,18.5
2017-08-31T12:59:43.280Z,18.4
2017-08-31T13:00:45.746Z,18.4
2017-08-31T13:01:48.224Z,18.3
2017-08-31T13:02:50.695Z,18.3
2017-08-31T13:03:53.160Z,18.4
2017-08-31T13:04:55.627Z,18.3
2017-08-31T13:05:58.449Z,18.3
2017-08-31T13:07:00.916Z,18.2
2017-08-31T13:08:03.389Z,18.5
2017-08-31T13:09:05.851Z,18.6
2017-08-31T13:10:08.326Z,18.8
2017-08-31T13:11:10.800Z,18.9
2017-08-31T13:12:13.261Z,18.9
2017-08-31T13:13:15.736Z,18.9
2017-08-31T13:14:18.197Z,18.9
2017-08-31T13:15:20.664Z,18.8
2017-08-31T13:16:23.132Z,18.6
2017-08-31T13:17:25.610Z,18.6
2017-08-31T13:18:28.090Z,18.6
2017-08-31T13:19:30.556Z,18.5
2017-08-31T13:20:33.025Z,18.4
2017-08-31T13:21:35.845Z,18.4
2017-08-31T13:22:38.308Z,18.3
2017-08-31T13:23:40.778Z,18.3
2017-08-31T13:24:43.243Z,18.1
2017-08-31T13:25:45.699Z,18.1
2017-08-31T13:26:48.181Z,18.2
2017-08-31T13:27:50.650Z,18
2017-08-31T13:28:53.464Z,18
2017-08-31T13:29:55.936Z,18.1
2017-08-31T13:30:58.398Z,18.1
2017-08-31T13:32:00.868Z,18
2017-08-31T13:33:03.351Z,18
2017-08-31T13:34:05.811Z,18
2017-08-31T13:35:08.289Z,18
2017-08-31T13:36:10.763Z,18
2017-08-31T13:37:13.573Z,18.1
2017-08-31T13:38:16.042Z,18.2
2017-08-31T13:39:18.518Z,18.3
2017-08-31T13:40:21.324Z,18.4
2017-08-31T13:41:23.799Z,18.4
2017-08-31T13:42:26.250Z,18.4
2017-08-31T13:43:28.725Z,18.3
2017-08-31T13:44:31.201Z,18.2
2017-08-31T13:45:33.670Z,18.1
2017-08-31T13:46:36.489Z,18.1
2017-08-31T13:47:38.958Z,18.1
2017-08-31T13:48:41.427Z,18.1
2017-08-31T13:49:43.900Z,18.2
2017-08-31T13:50:46.363Z,18
2017-08-31T13:51:48.821Z,18
2017-08-31T13:52:51.293Z,17.9
2017-08-31T13:53:53.753Z,17.9
2017-08-31T13:54:56.215Z,18